New Philadelphia, Illinois
Current Conditions -  °F | °C
As of 12:35 PM on Wednesday 26 Nov 2014 (Local Time) from KMQB Reporting Station
Haze Haze  
Wind Chill: 22°   Ceiling: 1000
Heat Index: 32°   Visibility: 2.5mi
Dew Point: 30°   Wind: 14mph
Humidity: 93%   Direction: 100°E
Pressure: 30.03"   Gusts: NA
Location:  40.4998°N, 90.3918°W
Report Text: KMQB 261835Z AUTO 10012KT 2 1/2SM BR BKN010 BKN025 OVC032 00/M01 A3003 RMK AO2 T10021012
Loading
Personal Weather Stations






























Interactive Weather Map New forecast layout! Learn more

10-Day Weather Forecast

Advertisements
Track Severe Weather on mobile